createdAt,value
2022-09-17T00:04:54.774Z,99.42
2022-09-17T00:09:56.394Z,100.00
2022-09-17T00:14:58.077Z,100.00
2022-09-17T00:19:59.811Z,99.96
2022-09-17T00:25:01.329Z,99.99
2022-09-17T00:30:03.520Z,100.00
2022-09-17T00:35:05.876Z,100.00
2022-09-17T00:40:08.221Z,100.00
2022-09-17T00:45:10.485Z,100.00
2022-09-17T00:50:23.536Z,100.00
2022-09-17T00:55:30.194Z,100.00
2022-09-17T01:00:32.453Z,100.00
2022-09-17T01:06:21.067Z,100.00
2022-09-17T01:11:53.540Z,100.00
2022-09-17T01:17:25.016Z,100.00
2022-09-17T01:23:03.891Z,100.00
2022-09-17T01:28:29.174Z,100.00
2022-09-17T01:33:43.342Z,100.00
2022-09-17T01:38:50.449Z,100.00
2022-09-17T01:44:35.439Z,100.00
2022-09-17T01:49:39.232Z,100.00
2022-09-17T01:54:49.161Z,100.00
2022-09-17T02:00:05.429Z,100.00
2022-09-17T02:05:32.643Z,100.00
2022-09-17T02:10:41.463Z,100.00
2022-09-17T02:15:55.292Z,100.00
2022-09-17T02:21:12.091Z,100.00
2022-09-17T02:26:19.250Z,100.00
2022-09-17T02:31:21.553Z,100.00
2022-09-17T02:36:24.575Z,100.00
2022-09-17T02:41:38.639Z,100.00
2022-09-17T02:47:05.247Z,99.34
2022-09-17T02:52:37.385Z,100.00
2022-09-17T02:57:53.633Z,100.00
2022-09-17T03:03:20.753Z,100.00
2022-09-17T03:08:29.280Z,100.00
2022-09-17T03:13:31.127Z,100.00
2022-09-17T03:18:32.662Z,99.70
2022-09-17T03:23:34.082Z,100.00
2022-09-17T03:28:35.535Z,100.00
2022-09-17T03:33:36.953Z,100.00
2022-09-17T03:38:38.664Z,100.00
2022-09-17T03:43:40.103Z,100.00
2022-09-17T03:48:41.533Z,100.00
2022-09-17T03:53:43.077Z,100.00
2022-09-17T03:58:44.591Z,100.00
2022-09-17T04:03:46.120Z,100.00
2022-09-17T04:08:47.901Z,100.00
2022-09-17T04:13:49.711Z,100.00
2022-09-17T04:18:51.190Z,100.00
2022-09-17T04:23:52.623Z,100.00
2022-09-17T04:28:54.092Z,100.00
2022-09-17T04:33:55.571Z,100.00
2022-09-17T04:38:57.295Z,100.00
2022-09-17T04:43:58.817Z,100.00
2022-09-17T04:49:00.360Z,100.00
2022-09-17T04:54:01.782Z,100.00
2022-09-17T04:59:03.451Z,100.00
2022-09-17T05:04:05.220Z,100.00
2022-09-17T05:09:06.876Z,100.00
2022-09-17T05:14:08.527Z,100.00
2022-09-17T05:19:09.965Z,100.00
2022-09-17T05:24:11.533Z,99.70
2022-09-17T05:29:13.177Z,100.00
2022-09-17T05:34:14.586Z,100.00
2022-09-17T05:39:16.335Z,99.54
2022-09-17T05:44:18.651Z,98.92
2022-09-17T05:49:20.415Z,98.39
2022-09-17T05:54:21.960Z,97.34
2022-09-17T05:59:23.477Z,97.19
2022-09-17T06:04:24.904Z,96.54
2022-09-17T06:09:26.692Z,96.58
2022-09-17T06:14:28.117Z,96.94
2022-09-17T06:19:29.569Z,96.60
2022-09-17T06:24:31.666Z,96.38
2022-09-17T06:29:33.192Z,95.62
2022-09-17T06:34:34.593Z,95.75
2022-09-17T06:39:36.713Z,95.82
2022-09-17T06:44:38.288Z,95.40
2022-09-17T06:49:39.765Z,94.70
2022-09-17T06:54:41.158Z,95.02
2022-09-17T06:59:42.971Z,93.19
2022-09-17T07:04:44.469Z,92.44
2022-09-17T07:09:45.905Z,91.99
2022-09-17T07:14:47.725Z,91.21
2022-09-17T07:19:49.133Z,90.06
2022-09-17T07:24:50.634Z,88.62
2022-09-17T07:29:52.192Z,86.22
2022-09-17T07:34:53.812Z,84.33
2022-09-17T07:39:55.667Z,83.50
2022-09-17T07:45:01.293Z,82.67
2022-09-17T07:50:03.773Z,81.54
2022-09-17T07:55:05.647Z,82.12
2022-09-17T08:00:08.170Z,82.45
2022-09-17T08:05:15.374Z,82.33
2022-09-17T08:10:17.036Z,82.25
2022-09-17T08:15:19.381Z,81.24
2022-09-17T08:20:20.916Z,79.91
2022-09-17T08:25:22.434Z,79.90
2022-09-17T08:30:24.001Z,79.81
2022-09-17T08:35:28.025Z,78.36
2022-09-17T08:40:29.678Z,77.08
2022-09-17T08:45:31.297Z,77.75
2022-09-17T08:50:38.959Z,76.39
2022-09-17T08:55:51.017Z,76.13
2022-09-17T09:01:23.028Z,74.95
2022-09-17T09:06:29.858Z,75.63
2022-09-17T09:11:31.834Z,72.32
2022-09-17T09:16:37.497Z,70.50
2022-09-17T09:22:00.537Z,70.54
2022-09-17T09:27:10.545Z,70.89
2022-09-17T09:32:37.013Z,69.24
2022-09-17T09:37:42.193Z,68.10
2022-09-17T09:42:48.792Z,66.51
2022-09-17T09:48:26.640Z,66.22
2022-09-17T09:54:03.525Z,65.29
2022-09-17T09:59:10.998Z,64.27
2022-09-17T10:04:24.388Z,63.70
2022-09-17T10:09:26.100Z,65.40
2022-09-17T10:14:30.397Z,65.18
2022-09-17T10:19:31.887Z,65.81
2022-09-17T10:24:34.326Z,64.04
2022-09-17T10:29:35.912Z,62.09
2022-09-17T10:34:37.626Z,64.50
2022-09-17T10:39:48.453Z,61.07
2022-09-17T10:44:58.609Z,62.07
2022-09-17T10:50:07.527Z,62.21
2022-09-17T10:55:33.437Z,64.42
2022-09-17T11:00:49.859Z,63.35
2022-09-17T11:06:14.658Z,69.63
2022-09-17T11:11:35.028Z,80.79
2022-09-17T11:16:47.950Z,85.51
2022-09-17T11:22:30.251Z,89.34
2022-09-17T11:27:47.702Z,89.69
2022-09-17T11:33:31.705Z,86.06
2022-09-17T11:38:44.976Z,85.54
2022-09-17T11:44:12.909Z,82.68
2022-09-17T11:49:22.005Z,80.10
2022-09-17T11:54:45.732Z,79.42
2022-09-17T11:59:59.667Z,71.42
2022-09-17T12:05:08.629Z,69.76
2022-09-17T12:10:31.713Z,69.90
2022-09-17T12:15:38.362Z,70.86
2022-09-17T12:20:45.266Z,70.28
2022-09-17T12:26:00.973Z,69.55
2022-09-17T12:31:17.090Z,69.30
2022-09-17T12:36:37.480Z,68.16
2022-09-17T12:41:51.538Z,64.14
2022-09-17T12:47:11.721Z,62.05
2022-09-17T12:52:29.851Z,74.06
2022-09-17T12:58:01.038Z,83.03
2022-09-17T13:03:15.605Z,88.04
2022-09-17T13:08:44.568Z,90.76
2022-09-17T13:14:25.250Z,87.34
2022-09-17T13:19:52.792Z,77.91
2022-09-17T13:25:12.588Z,78.81
2022-09-17T13:30:15.975Z,77.13
2022-09-17T13:35:17.407Z,75.98
2022-09-17T13:40:30.934Z,72.04
2022-09-17T13:45:34.369Z,70.23
2022-09-17T13:50:44.160Z,81.50
2022-09-17T13:56:01.086Z,96.40
2022-09-17T14:01:07.614Z,97.80
2022-09-17T14:06:09.160Z,98.85
2022-09-17T14:11:42.662Z,100.00
2022-09-17T14:16:45.880Z,100.00
2022-09-17T14:22:05.882Z,94.15
2022-09-17T14:27:12.227Z,95.45
2022-09-17T14:32:27.674Z,92.78
2022-09-17T14:37:29.746Z,91.81
2022-09-17T14:42:36.449Z,89.49
2022-09-17T14:47:37.852Z,90.78
2022-09-17T14:52:39.252Z,90.86
2022-09-17T14:57:40.752Z,91.86
2022-09-17T15:02:45.403Z,90.93
2022-09-17T15:07:47.837Z,88.69
2022-09-17T15:12:51.389Z,85.47
2022-09-17T15:17:54.405Z,85.71
2022-09-17T15:23:00.265Z,78.20
2022-09-17T15:28:26.482Z,81.44
2022-09-17T15:33:31.454Z,77.81
2022-09-17T15:38:33.078Z,75.84
2022-09-17T15:43:34.587Z,76.84
2022-09-17T15:48:39.409Z,79.00
2022-09-17T15:53:52.397Z,77.77
2022-09-17T15:59:21.344Z,75.66
2022-09-17T16:04:30.956Z,77.21
2022-09-17T16:09:43.067Z,69.46
2022-09-17T16:14:46.627Z,71.91
2022-09-17T16:19:48.338Z,71.91
2022-09-17T16:24:49.888Z,72.04
2022-09-17T16:29:56.464Z,72.93
2022-09-17T16:34:58.155Z,74.56
2022-09-17T16:40:00.858Z,70.62
2022-09-17T16:45:03.845Z,69.21
2022-09-17T16:50:07.995Z,73.07
2022-09-17T16:55:10.921Z,69.99
2022-09-17T17:00:16.405Z,69.09
2022-09-17T17:05:18.413Z,69.44
2022-09-17T17:10:20.217Z,71.16
2022-09-17T17:15:22.454Z,69.87
2022-09-17T17:20:23.945Z,69.65
2022-09-17T17:25:26.994Z,69.94
2022-09-17T17:30:34.223Z,70.81
2022-09-17T17:35:39.421Z,72.51
2022-09-17T17:40:40.905Z,72.49
2022-09-17T17:45:42.385Z,71.40
2022-09-17T17:50:43.833Z,73.87
2022-09-17T17:55:57.045Z,75.25
2022-09-17T18:00:59.137Z,75.01
2022-09-17T18:06:00.596Z,75.95
2022-09-17T18:11:04.040Z,75.98
2022-09-17T18:16:08.670Z,76.66
2022-09-17T18:21:13.129Z,76.48
2022-09-17T18:26:18.861Z,78.16
2022-09-17T18:31:24.983Z,76.73
2022-09-17T18:36:28.957Z,76.76
2022-09-17T18:41:32.697Z,75.42
2022-09-17T18:46:34.804Z,74.21
2022-09-17T18:51:37.803Z,69.81
2022-09-17T18:56:41.322Z,71.21
2022-09-17T19:01:43.005Z,67.51
2022-09-17T19:06:45.257Z,67.25
2022-09-17T19:11:46.919Z,66.01
2022-09-17T19:16:48.947Z,67.12
2022-09-17T19:21:50.730Z,67.59
2022-09-17T19:26:52.636Z,68.09
2022-09-17T19:31:54.200Z,69.27
2022-09-17T19:36:55.974Z,70.55
2022-09-17T19:41:58.044Z,72.59
2022-09-17T19:46:59.594Z,72.36
2022-09-17T19:52:01.296Z,73.62
2022-09-17T19:57:02.731Z,73.49
2022-09-17T20:02:04.627Z,73.83
2022-09-17T20:07:06.268Z,74.83
2022-09-17T20:12:07.806Z,74.93
2022-09-17T20:17:09.309Z,77.21
2022-09-17T20:22:10.865Z,75.94
2022-09-17T20:27:12.252Z,76.67
2022-09-17T20:32:13.837Z,77.17
2022-09-17T20:37:16.116Z,78.16
2022-09-17T20:42:20.501Z,77.62
2022-09-17T20:47:22.058Z,78.70
2022-09-17T20:52:23.490Z,79.92
2022-09-17T20:57:25.398Z,82.65
2022-09-17T21:02:27.384Z,84.48
2022-09-17T21:07:28.797Z,85.96
2022-09-17T21:12:30.389Z,86.43
2022-09-17T21:17:32.046Z,85.79
2022-09-17T21:22:33.465Z,86.42
2022-09-17T21:27:34.935Z,86.90
2022-09-17T21:32:37.745Z,87.56
2022-09-17T21:37:39.147Z,88.32
2022-09-17T21:42:40.634Z,88.62
2022-09-17T21:47:42.088Z,88.87
2022-09-17T21:52:43.488Z,88.92
2022-09-17T21:57:45.031Z,89.44
2022-09-17T22:02:46.515Z,89.54
2022-09-17T22:07:48.251Z,90.64
2022-09-17T22:12:49.704Z,90.65
2022-09-17T22:17:51.376Z,91.98
2022-09-17T22:22:52.947Z,92.58
2022-09-17T22:28:19.436Z,94.08
2022-09-17T22:33:15.917Z,94.11
2022-09-17T22:38:17.321Z,94.95
2022-09-17T22:43:19.075Z,95.57
2022-09-17T22:48:20.957Z,95.20
2022-09-17T22:53:22.716Z,97.12
2022-09-17T22:58:24.691Z,96.76
2022-09-17T23:03:27.350Z,97.28
2022-09-17T23:08:29.080Z,97.02
2022-09-17T23:13:31.221Z,97.03
2022-09-17T23:18:35.266Z,98.21
2022-09-17T23:23:37.426Z,99.12
2022-09-17T23:28:39.378Z,100.00
2022-09-17T23:33:41.558Z,100.00
2022-09-17T23:38:44.691Z,100.00
2022-09-17T23:43:51.366Z,100.00
2022-09-17T23:48:56.008Z,100.00
2022-09-17T23:53:58.297Z,100.00
2022-09-17T23:59:01.193Z,100.00
